createdAt,value
2023-12-09T00:01:21.000Z,99737.16
2023-12-09T00:03:48.769Z,99734.59
2023-12-09T00:06:16.646Z,99743.19
2023-12-09T00:08:45.473Z,99744.00
2023-12-09T00:11:13.124Z,99756.78
2023-12-09T00:13:40.707Z,99752.50
2023-12-09T00:16:08.902Z,99752.50
2023-12-09T00:18:37.998Z,99756.75
2023-12-09T00:21:06.418Z,99755.94
2023-12-09T00:23:34.065Z,99753.41
2023-12-09T00:26:01.607Z,99750.84
2023-12-09T00:28:29.194Z,99757.75
2023-12-09T00:30:56.917Z,99744.13
2023-12-09T00:33:24.823Z,99744.13
2023-12-09T00:35:53.928Z,99751.09
2023-12-09T00:38:21.603Z,99751.84
2023-12-09T00:40:49.197Z,99753.53
2023-12-09T00:43:16.735Z,99766.22
2023-12-09T00:45:44.261Z,99762.78
2023-12-09T00:48:11.938Z,99764.47
2023-12-09T00:50:39.645Z,99770.41
2023-12-09T00:53:08.648Z,99775.53
2023-12-09T00:55:36.259Z,99778.06
2023-12-09T00:58:03.821Z,99788.31
2023-12-09T01:00:31.461Z,99781.47
2023-12-09T01:02:59.183Z,99778.06
2023-12-09T01:05:26.885Z,99782.38
2023-12-09T01:07:54.517Z,99790.03
2023-12-09T01:10:23.495Z,99793.41
2023-12-09T01:12:51.202Z,99796.81
2023-12-09T01:15:18.944Z,99799.31
2023-12-09T01:17:46.668Z,99804.44
2023-12-09T01:20:15.298Z,99802.59
2023-12-09T01:22:42.877Z,99810.28
2023-12-09T01:25:10.669Z,99807.84
2023-12-09T01:27:39.669Z,99812.88
2023-12-09T01:30:08.669Z,99814.75
2023-12-09T01:32:36.331Z,99824.94
2023-12-09T01:35:04.878Z,99823.25
2023-12-09T01:37:32.519Z,99825.84
2023-12-09T01:40:00.141Z,99821.69
2023-12-09T01:42:27.976Z,99825.97
2023-12-09T01:44:57.206Z,99827.72
2023-12-09T01:47:25.028Z,99834.72
2023-12-09T01:49:53.095Z,99833.06
2023-12-09T01:52:20.927Z,99828.00
2023-12-09T01:54:48.640Z,99834.94
2023-12-09T01:57:16.532Z,99834.16
2023-12-09T01:59:44.387Z,99826.47
2023-12-09T02:02:13.396Z,99830.03
2023-12-09T02:04:41.902Z,99835.38
2023-12-09T02:07:09.615Z,99835.50
2023-12-09T02:09:40.581Z,99832.25
2023-12-09T02:12:17.058Z,99829.09
2023-12-09T02:14:54.111Z,99825.81
2023-12-09T02:17:28.329Z,99826.69
2023-12-09T02:19:56.285Z,99822.44
2023-12-09T02:22:24.031Z,99818.31
2023-12-09T02:24:53.111Z,99814.16
2023-12-09T02:27:28.784Z,99811.72
2023-12-09T02:30:05.885Z,99806.63
2023-12-09T02:32:36.590Z,99812.75
2023-12-09T02:35:06.978Z,99801.69
2023-12-09T02:37:36.496Z,99792.38
2023-12-09T02:40:10.797Z,99785.63
2023-12-09T02:42:39.683Z,99778.66
2023-12-09T02:45:09.002Z,99773.53
2023-12-09T02:47:36.750Z,99773.44
2023-12-09T02:50:04.938Z,99774.06
2023-12-09T02:52:32.538Z,99773.09
2023-12-09T02:55:00.211Z,99761.00
2023-12-09T02:57:29.167Z,99758.34
2023-12-09T02:59:56.825Z,99756.50
2023-12-09T03:02:24.515Z,99750.28
2023-12-09T03:04:52.218Z,99744.91
2023-12-09T03:07:21.574Z,99736.19
2023-12-09T03:09:49.312Z,99738.53
2023-12-09T03:12:17.095Z,99735.84
2023-12-09T03:14:46.103Z,99746.88
2023-12-09T03:17:13.869Z,99739.00
2023-12-09T03:19:42.262Z,99749.13
2023-12-09T03:22:10.103Z,99735.41
2023-12-09T03:24:37.801Z,99731.81
2023-12-09T03:27:05.989Z,99718.00
2023-12-09T03:29:32.603Z,99724.50
2023-12-09T03:32:01.548Z,99727.78
2023-12-09T03:34:29.527Z,99735.38
2023-12-09T03:36:57.196Z,99739.50
2023-12-09T03:39:25.078Z,99749.66
2023-12-09T03:41:52.877Z,99755.66
2023-12-09T03:44:20.524Z,99764.03
2023-12-09T03:46:48.223Z,99750.25
2023-12-09T03:49:17.162Z,99750.25
2023-12-09T03:51:44.779Z,99735.66
2023-12-09T03:54:12.431Z,99746.00
2023-12-09T03:56:40.030Z,99736.69
2023-12-09T03:59:07.798Z,99740.13
2023-12-09T04:01:35.516Z,99747.66
2023-12-09T04:04:03.204Z,99739.91
2023-12-09T04:06:33.416Z,99753.44
2023-12-09T04:09:01.581Z,99750.03
2023-12-09T04:11:29.217Z,99746.66
2023-12-09T04:13:56.855Z,99746.66
2023-12-09T04:16:24.531Z,99746.59
2023-12-09T04:18:52.329Z,99750.75
2023-12-09T04:21:20.109Z,99760.88
2023-12-09T04:23:49.136Z,99754.00
2023-12-09T04:26:18.051Z,99748.03
2023-12-09T04:28:46.266Z,99737.81
2023-12-09T04:31:14.005Z,99754.53
2023-12-09T04:33:41.774Z,99733.31
2023-12-09T04:36:10.094Z,99746.25
2023-12-09T04:38:37.747Z,99725.84
2023-12-09T04:41:07.081Z,99747.94
2023-12-09T04:43:34.736Z,99749.63
2023-12-09T04:46:02.352Z,99752.16
2023-12-09T04:48:30.177Z,99742.81
2023-12-09T04:50:57.853Z,99747.06
2023-12-09T04:53:25.438Z,99730.84
2023-12-09T04:55:53.028Z,99728.34
2023-12-09T04:58:21.934Z,99742.81
2023-12-09T05:00:49.515Z,99732.50
2023-12-09T05:03:17.209Z,99727.47
2023-12-09T05:05:44.940Z,99728.34
2023-12-09T05:08:12.550Z,99724.06
2023-12-09T05:10:40.193Z,99722.28
2023-12-09T05:13:07.757Z,99718.13
2023-12-09T05:15:36.752Z,99716.44
2023-12-09T05:18:04.507Z,99723.25
2023-12-09T05:20:32.163Z,99718.13
2023-12-09T05:22:59.785Z,99714.75
2023-12-09T05:25:27.344Z,99716.38
2023-12-09T05:27:54.966Z,99709.66
2023-12-09T05:30:23.376Z,99715.63
2023-12-09T05:32:52.675Z,99712.16
2023-12-09T05:35:20.284Z,99708.81
2023-12-09T05:37:47.925Z,99708.81
2023-12-09T05:40:16.014Z,99702.78
2023-12-09T05:42:43.753Z,99713.13
2023-12-09T05:45:12.205Z,99711.50
2023-12-09T05:47:39.889Z,99708.00
2023-12-09T05:50:11.045Z,99710.56
2023-12-09T05:52:38.717Z,99702.88
2023-12-09T05:55:07.203Z,99699.53
2023-12-09T05:57:34.850Z,99709.69
2023-12-09T06:00:02.593Z,99706.22
2023-12-09T06:02:32.385Z,99707.91
2023-12-09T06:04:59.930Z,99692.56
2023-12-09T06:07:28.859Z,99684.78
2023-12-09T06:09:57.040Z,99682.22
2023-12-09T06:12:24.813Z,99675.97
2023-12-09T06:14:52.916Z,99670.78
2023-12-09T06:17:20.440Z,99677.09
2023-12-09T06:19:48.123Z,99682.69
2023-12-09T06:22:15.673Z,99670.38
2023-12-09T06:24:46.128Z,99661.78
2023-12-09T06:27:14.326Z,99657.38
2023-12-09T06:29:41.968Z,99652.84
2023-12-09T06:32:09.535Z,99650.72
2023-12-09T06:34:37.214Z,99657.88
2023-12-09T06:37:05.326Z,99666.31
2023-12-09T06:39:33.031Z,99662.97
2023-12-09T06:42:02.338Z,99670.69
2023-12-09T06:44:30.025Z,99663.72
2023-12-09T06:46:57.609Z,99657.72
2023-12-09T06:49:25.286Z,99653.63
2023-12-09T06:51:52.959Z,99644.06
2023-12-09T06:54:20.671Z,99657.56
2023-12-09T06:56:48.265Z,99660.25
2023-12-09T06:59:17.150Z,99646.75
2023-12-09T07:01:44.849Z,99639.22
2023-12-09T07:04:13.681Z,99642.81
2023-12-09T07:06:41.487Z,99653.84
2023-12-09T07:09:09.567Z,99648.63
2023-12-09T07:11:37.773Z,99653.91
2023-12-09T07:14:05.355Z,99661.09
2023-12-09T07:16:34.486Z,99653.19
2023-12-09T07:19:02.474Z,99649.53
2023-12-09T07:21:30.386Z,99660.13
2023-12-09T07:23:58.324Z,99659.53
2023-12-09T07:26:25.913Z,99654.53
2023-12-09T07:28:53.492Z,99652.91
2023-12-09T07:31:21.298Z,99648.63
2023-12-09T07:33:50.358Z,99646.06
2023-12-09T07:36:18.400Z,99657.22
2023-12-09T07:38:45.948Z,99668.25
2023-12-09T07:41:13.699Z,99663.03
2023-12-09T07:43:41.283Z,99673.25
2023-12-09T07:46:08.918Z,99662.97
2023-12-09T07:48:36.660Z,99655.31
2023-12-09T07:51:06.405Z,99666.38
2023-12-09T07:53:34.024Z,99653.66
2023-12-09T07:56:01.624Z,99654.31
2023-12-09T07:58:29.174Z,99643.09
2023-12-09T08:00:59.787Z,99649.88
2023-12-09T08:03:27.791Z,99642.53
2023-12-09T08:05:55.506Z,99635.88
2023-12-09T08:08:24.630Z,99631.88
2023-12-09T08:10:52.253Z,99632.28
2023-12-09T08:13:19.908Z,99630.31
2023-12-09T08:15:47.496Z,99633.53
2023-12-09T08:18:15.168Z,99629.09
2023-12-09T08:20:42.930Z,99633.97
2023-12-09T08:23:10.577Z,99625.25
2023-12-09T08:25:39.586Z,99628.72
2023-12-09T08:28:08.202Z,99628.84
2023-12-09T08:30:35.789Z,99623.84
2023-12-09T08:33:04.743Z,99620.94
2023-12-09T08:35:32.498Z,99622.59
2023-12-09T08:38:00.214Z,99631.09
2023-12-09T08:40:28.020Z,99625.97
2023-12-09T08:42:56.953Z,99631.38
2023-12-09T08:45:25.130Z,99615.47
2023-12-09T08:47:53.363Z,99606.53
2023-12-09T08:50:23.660Z,99597.53
2023-12-09T08:52:53.801Z,99600.22
2023-12-09T08:55:22.153Z,99602.22
2023-12-09T08:57:50.454Z,99586.06
2023-12-09T09:00:22.142Z,99575.22
2023-12-09T09:02:50.692Z,99572.28
2023-12-09T09:05:18.351Z,99580.78
2023-12-09T09:07:46.234Z,99587.34
2023-12-09T09:10:13.889Z,99586.44
2023-12-09T09:12:41.610Z,99588.50
2023-12-09T09:15:10.672Z,99581.44
2023-12-09T09:17:40.694Z,99587.06
2023-12-09T09:20:09.463Z,99576.16
2023-12-09T09:22:37.525Z,99559.16
2023-12-09T09:25:05.663Z,99560.50
2023-12-09T09:27:33.406Z,99547.94
2023-12-09T09:30:01.291Z,99550.25
2023-12-09T09:32:29.404Z,99545.31
2023-12-09T09:34:58.644Z,99545.31
2023-12-09T09:37:26.315Z,99540.19
2023-12-09T09:39:55.021Z,99535.16
2023-12-09T09:42:31.935Z,99534.53
2023-12-09T09:45:09.435Z,99532.06
2023-12-09T09:47:38.941Z,99527.66
2023-12-09T09:50:09.519Z,99525.94
2023-12-09T09:52:38.054Z,99524.44
2023-12-09T09:55:07.916Z,99523.72
2023-12-09T09:57:36.191Z,99515.28
2023-12-09T10:00:13.699Z,99512.84
2023-12-09T10:02:43.711Z,99493.25
2023-12-09T10:05:13.806Z,99493.25
2023-12-09T10:07:41.659Z,99488.47
2023-12-09T10:10:10.176Z,99470.63
2023-12-09T10:12:38.267Z,99475.63
2023-12-09T10:15:07.443Z,99477.50
2023-12-09T10:17:35.675Z,99475.16
2023-12-09T10:20:06.785Z,99478.72
2023-12-09T10:22:37.592Z,99470.50
2023-12-09T10:25:05.921Z,99470.75
2023-12-09T10:27:34.864Z,99459.97
2023-12-09T10:30:03.300Z,99469.84
2023-12-09T10:32:31.318Z,99457.38
2023-12-09T10:35:02.402Z,99441.28
2023-12-09T10:37:32.881Z,99444.97
2023-12-09T10:40:04.692Z,99441.00
2023-12-09T10:42:32.940Z,99435.13
2023-12-09T10:45:04.151Z,99433.53
2023-12-09T10:47:32.014Z,99421.66
2023-12-09T10:49:59.750Z,99419.84
2023-12-09T10:52:27.636Z,99405.22
2023-12-09T10:54:55.505Z,99401.03
2023-12-09T10:57:25.681Z,99388.31
2023-12-09T10:59:54.074Z,99384.91
2023-12-09T11:02:23.285Z,99364.44
2023-12-09T11:04:52.181Z,99350.72
2023-12-09T11:07:20.409Z,99343.75
2023-12-09T11:09:48.374Z,99324.81
2023-12-09T11:12:29.469Z,99314.25
2023-12-09T11:15:01.823Z,99313.31
2023-12-09T11:17:36.588Z,99307.22
2023-12-09T11:20:11.888Z,99298.53
2023-12-09T11:22:48.915Z,99289.91
2023-12-09T11:25:23.701Z,99282.38
2023-12-09T11:27:52.374Z,99263.78
2023-12-09T11:30:34.774Z,99251.06
2023-12-09T11:33:04.321Z,99251.66
2023-12-09T11:35:34.204Z,99247.19
2023-12-09T11:38:05.540Z,99250.56
2023-12-09T11:40:34.221Z,99235.19
2023-12-09T11:43:04.381Z,99230.84
2023-12-09T11:45:32.095Z,99238.50
2023-12-09T11:48:01.607Z,99227.38
2023-12-09T11:50:30.131Z,99231.69
2023-12-09T11:52:57.816Z,99219.75
2023-12-09T11:55:26.842Z,99210.34
2023-12-09T11:57:54.515Z,99200.97
2023-12-09T12:00:22.590Z,99184.88
2023-12-09T12:02:50.365Z,99183.44
2023-12-09T12:05:18.070Z,99184.44
2023-12-09T12:07:46.724Z,99187.19
2023-12-09T12:10:15.620Z,99181.47
2023-12-09T12:12:45.663Z,99176.63
2023-12-09T12:15:14.392Z,99170.94
2023-12-09T12:17:43.197Z,99179.66
2023-12-09T12:20:13.258Z,99172.19
2023-12-09T12:22:41.472Z,99161.19
2023-12-09T12:25:10.622Z,99152.72
2023-12-09T12:27:43.915Z,99149.31
2023-12-09T12:30:14.226Z,99132.13
2023-12-09T12:32:42.100Z,99123.56
2023-12-09T12:35:10.596Z,99112.34
2023-12-09T12:37:38.484Z,99101.94
2023-12-09T12:40:07.548Z,99101.94
2023-12-09T12:42:35.452Z,99113.00
2023-12-09T12:45:05.116Z,99095.81
2023-12-09T12:47:34.588Z,99108.59
2023-12-09T12:50:02.297Z,99111.94
2023-12-09T12:52:30.411Z,99110.00
2023-12-09T12:54:59.066Z,99097.13
2023-12-09T12:57:26.852Z,99088.56
2023-12-09T12:59:58.868Z,99069.00
2023-12-09T13:02:30.313Z,99062.38
2023-12-09T13:04:59.578Z,99055.41
2023-12-09T13:07:27.404Z,99058.66
2023-12-09T13:09:55.145Z,99054.91
2023-12-09T13:12:22.909Z,99053.00
2023-12-09T13:14:50.647Z,99037.38
2023-12-09T13:17:18.393Z,99026.91
2023-12-09T13:19:46.382Z,99018.34
2023-12-09T13:22:15.789Z,99001.25
2023-12-09T13:24:43.509Z,98993.38
2023-12-09T13:27:11.437Z,98977.09
2023-12-09T13:29:39.273Z,98962.44
2023-12-09T13:32:07.435Z,98956.34
2023-12-09T13:34:35.239Z,98955.41
2023-12-09T13:37:03.037Z,98957.84
2023-12-09T13:39:32.334Z,98967.97
2023-12-09T13:42:00.122Z,98963.69
2023-12-09T13:44:27.862Z,98944.78
2023-12-09T13:46:55.515Z,98949.06
2023-12-09T13:49:23.341Z,98940.47
2023-12-09T13:51:51.411Z,98929.38
2023-12-09T13:54:21.247Z,98902.78
2023-12-09T13:56:50.430Z,98902.84
2023-12-09T13:59:18.279Z,98888.28
2023-12-09T14:01:46.677Z,98896.00
2023-12-09T14:04:14.476Z,98901.13
2023-12-09T14:06:41.481Z,98903.66
2023-12-09T14:09:10.024Z,98890.94
2023-12-09T14:11:39.663Z,98887.44
2023-12-09T14:14:08.750Z,98868.47
2023-12-09T14:16:37.362Z,98877.75
2023-12-09T14:19:05.487Z,98871.69
2023-12-09T14:21:34.109Z,98867.31
2023-12-09T14:24:01.928Z,98872.31
2023-12-09T14:26:30.542Z,98868.97
2023-12-09T14:28:58.847Z,98860.41
2023-12-09T14:31:27.865Z,98858.72
2023-12-09T14:33:55.915Z,98863.78
2023-12-09T14:36:24.170Z,98861.28
2023-12-09T14:38:52.022Z,98853.44
2023-12-09T14:41:19.929Z,98852.56
2023-12-09T14:43:49.363Z,98852.50
2023-12-09T14:46:18.881Z,98836.97
2023-12-09T14:48:48.109Z,98833.38
2023-12-09T14:51:15.923Z,98818.00
2023-12-09T14:53:43.601Z,98817.13
2023-12-09T14:56:11.326Z,98796.66
2023-12-09T14:58:39.242Z,98790.53
2023-12-09T15:01:07.243Z,98793.94
2023-12-09T15:03:35.239Z,98781.13
2023-12-09T15:06:05.696Z,98781.91
2023-12-09T15:08:33.522Z,98765.53
2023-12-09T15:11:01.274Z,98751.78
2023-12-09T15:13:28.981Z,98743.22
2023-12-09T15:15:56.941Z,98734.59
2023-12-09T15:18:24.851Z,98708.91
2023-12-09T15:20:52.770Z,98700.41
2023-12-09T15:23:22.319Z,98687.41
2023-12-09T15:25:50.537Z,98687.38
2023-12-09T15:28:18.906Z,98676.97
2023-12-09T15:30:48.174Z,98665.03
2023-12-09T15:33:16.103Z,98662.38
2023-12-09T15:35:43.990Z,98651.22
2023-12-09T15:38:12.288Z,98640.03
2023-12-09T15:40:41.372Z,98634.06
2023-12-09T15:43:09.320Z,98630.66
2023-12-09T15:45:37.140Z,98603.25
2023-12-09T15:48:05.735Z,98603.97
2023-12-09T15:50:33.480Z,98590.28
2023-12-09T15:53:01.243Z,98578.34
2023-12-09T15:55:30.652Z,98576.47
2023-12-09T15:58:00.656Z,98565.41
2023-12-09T16:00:28.717Z,98551.75
2023-12-09T16:02:56.774Z,98554.31
2023-12-09T16:05:24.845Z,98544.13
2023-12-09T16:07:52.903Z,98529.53
2023-12-09T16:10:20.757Z,98527.91
2023-12-09T16:12:48.512Z,98512.50
2023-12-09T16:15:18.856Z,98500.53
2023-12-09T16:17:48.089Z,98489.44
2023-12-09T16:20:16.667Z,98478.34
2023-12-09T16:22:44.715Z,98478.28
2023-12-09T16:25:12.485Z,98472.38
2023-12-09T16:27:40.316Z,98453.59
2023-12-09T16:30:08.995Z,98444.22
2023-12-09T16:32:38.275Z,98440.81
2023-12-09T16:35:06.630Z,98432.28
2023-12-09T16:37:35.210Z,98417.72
2023-12-09T16:40:02.974Z,98404.97
2023-12-09T16:42:30.988Z,98394.72
2023-12-09T16:44:58.914Z,98380.22
2023-12-09T16:47:28.331Z,98379.38
2023-12-09T16:49:57.435Z,98364.84
2023-12-09T16:52:25.465Z,98359.75
2023-12-09T16:54:53.389Z,98356.34
2023-12-09T16:57:21.178Z,98339.28
2023-12-09T16:59:48.960Z,98335.91
2023-12-09T17:02:16.667Z,98327.31
2023-12-09T17:04:44.502Z,98319.66
2023-12-09T17:07:13.656Z,98311.13
2023-12-09T17:09:41.577Z,98301.72
2023-12-09T17:12:10.490Z,98288.94
2023-12-09T17:14:38.314Z,98277.00
2023-12-09T17:17:06.533Z,98290.63
2023-12-09T17:19:34.291Z,98278.69
2023-12-09T17:22:02.433Z,98284.66
2023-12-09T17:24:31.670Z,98285.50
2023-12-09T17:26:59.620Z,98275.22
2023-12-09T17:29:27.907Z,98266.69
2023-12-09T17:31:55.633Z,98260.72
2023-12-09T17:34:23.434Z,98249.66
2023-12-09T17:36:51.748Z,98235.97
2023-12-09T17:39:19.612Z,98244.41
2023-12-09T17:41:48.648Z,98239.22
2023-12-09T17:44:16.370Z,98246.84
2023-12-09T17:46:44.188Z,98246.03
2023-12-09T17:49:11.986Z,98247.75
2023-12-09T17:51:39.801Z,98246.91
2023-12-09T17:54:07.812Z,98251.22
2023-12-09T17:56:36.069Z,98247.84
2023-12-09T17:59:05.121Z,98249.56
2023-12-09T18:01:33.172Z,98251.22
2023-12-09T18:04:01.353Z,98246.16
2023-12-09T18:06:29.954Z,98247.88
2023-12-09T18:08:58.190Z,98242.75
2023-12-09T18:11:25.856Z,98208.63
2023-12-09T18:13:53.553Z,98194.13
2023-12-09T18:16:23.058Z,98199.25
2023-12-09T18:18:50.974Z,98203.44
2023-12-09T18:21:18.746Z,98207.56
2023-12-09T18:23:46.589Z,98200.78
2023-12-09T18:26:15.347Z,98192.25
2023-12-09T18:28:44.913Z,98195.69
2023-12-09T18:31:12.868Z,98196.53
2023-12-09T18:33:42.497Z,98188.00
2023-12-09T18:36:10.887Z,98200.78
2023-12-09T18:38:38.675Z,98206.75
2023-12-09T18:41:06.956Z,98213.59
2023-12-09T18:43:34.691Z,98213.59
2023-12-09T18:46:02.501Z,98220.44
2023-12-09T18:48:30.499Z,98217.03
2023-12-09T18:51:01.067Z,98220.38
2023-12-09T18:53:28.794Z,98216.13
2023-12-09T18:55:56.571Z,98218.69
2023-12-09T18:58:24.493Z,98218.69
2023-12-09T19:00:58.978Z,98211.81
2023-12-09T19:03:32.958Z,98217.00
2023-12-09T19:06:02.471Z,98215.22
2023-12-09T19:08:30.258Z,98213.53
2023-12-09T19:10:58.019Z,98206.66
2023-12-09T19:13:25.696Z,98209.22
2023-12-09T19:15:53.627Z,98208.41
2023-12-09T19:18:22.456Z,98222.09
2023-12-09T19:20:50.451Z,98200.72
2023-12-09T19:23:19.515Z,98200.75
2023-12-09T19:25:47.564Z,98205.00
2023-12-09T19:28:15.697Z,98209.38
2023-12-09T19:30:43.553Z,98197.72
2023-12-09T19:33:11.449Z,98208.25
2023-12-09T19:35:39.234Z,98213.47
2023-12-09T19:38:06.972Z,98207.69
2023-12-09T19:40:36.488Z,98201.81
2023-12-09T19:43:04.316Z,98223.28
2023-12-09T19:45:34.404Z,98209.75
2023-12-09T19:48:02.250Z,98223.44
2023-12-09T19:50:31.229Z,98228.63
2023-12-09T19:53:00.557Z,98244.03
2023-12-09T19:55:28.255Z,98226.94
2023-12-09T19:57:58.189Z,98221.78
2023-12-09T20:00:25.969Z,98220.97
2023-12-09T20:02:53.851Z,98226.97
2023-12-09T20:05:23.027Z,98232.09
2023-12-09T20:07:50.741Z,98226.94
2023-12-09T20:10:18.450Z,98250.91
2023-12-09T20:12:46.265Z,98241.50
2023-12-09T20:15:16.095Z,98271.47
2023-12-09T20:17:43.924Z,98275.78
2023-12-09T20:20:12.538Z,98277.47
2023-12-09T20:22:40.469Z,98272.34
2023-12-09T20:25:08.765Z,98282.56
2023-12-09T20:27:36.943Z,98298.84
2023-12-09T20:30:05.504Z,98317.66
2023-12-09T20:32:34.808Z,98318.53
2023-12-09T20:35:02.594Z,98295.47
2023-12-09T20:37:30.309Z,98287.72
2023-12-09T20:39:58.625Z,98276.56
2023-12-09T20:42:26.661Z,98280.00
2023-12-09T20:44:54.864Z,98262.88
2023-12-09T20:47:22.566Z,98288.56
2023-12-09T20:49:51.925Z,98275.72
2023-12-09T20:52:20.312Z,98275.72
2023-12-09T20:54:48.304Z,98282.59
2023-12-09T20:57:16.126Z,98304.00
2023-12-09T20:59:44.203Z,98327.13
2023-12-09T21:02:12.117Z,98345.13
2023-12-09T21:04:44.625Z,98368.25
2023-12-09T21:07:13.799Z,98347.72
2023-12-09T21:09:41.650Z,98360.56
2023-12-09T21:12:10.236Z,98370.03
2023-12-09T21:14:39.074Z,98382.88
2023-12-09T21:17:06.788Z,98396.63
2023-12-09T21:19:36.040Z,98406.97
2023-12-09T21:22:04.814Z,98422.34
2023-12-09T21:24:34.108Z,98433.50
2023-12-09T21:27:01.883Z,98428.41
2023-12-09T21:29:29.671Z,98425.75
2023-12-09T21:31:57.466Z,98445.50
2023-12-09T21:34:25.308Z,98448.13
2023-12-09T21:36:53.152Z,98464.41
2023-12-09T21:39:21.038Z,98479.88
2023-12-09T21:41:50.200Z,98490.16
2023-12-09T21:44:18.416Z,98498.72
2023-12-09T21:46:46.067Z,98499.56
2023-12-09T21:49:14.439Z,98499.59
2023-12-09T21:51:42.341Z,98531.31
2023-12-09T21:54:10.525Z,98524.47
2023-12-09T21:56:38.227Z,98543.31
2023-12-09T21:59:07.393Z,98534.75
2023-12-09T22:01:36.596Z,98567.34
2023-12-09T22:04:05.376Z,98605.06
2023-12-09T22:06:33.316Z,98579.34
2023-12-09T22:09:01.034Z,98582.78
2023-12-09T22:11:28.811Z,98583.63
2023-12-09T22:13:56.754Z,98577.59
2023-12-09T22:16:25.862Z,98575.88
2023-12-09T22:18:53.741Z,98581.00
2023-12-09T22:21:21.807Z,98586.94
2023-12-09T22:23:49.610Z,98588.63
2023-12-09T22:26:17.333Z,98558.63
2023-12-09T22:28:45.000Z,98601.47
2023-12-09T22:31:13.414Z,98611.78
2023-12-09T22:33:42.662Z,98628.94
2023-12-09T22:36:11.508Z,98660.63
2023-12-09T22:38:39.322Z,98656.34
2023-12-09T22:41:07.292Z,98666.66
2023-12-09T22:43:35.160Z,98683.00
2023-12-09T22:46:02.863Z,98684.72
2023-12-09T22:48:30.822Z,98682.13
2023-12-09T22:50:59.927Z,98703.56
2023-12-09T22:53:27.670Z,98706.13
2023-12-09T22:56:11.989Z,98741.28
2023-12-09T22:58:41.709Z,98736.19
2023-12-09T23:01:09.528Z,98732.78
2023-12-09T23:03:37.308Z,98744.75
2023-12-09T23:06:07.127Z,98760.19
2023-12-09T23:08:37.934Z,98756.75
2023-12-09T23:11:07.745Z,98758.50
2023-12-09T23:13:35.479Z,98785.97
2023-12-09T23:16:03.443Z,98785.97
2023-12-09T23:18:31.334Z,98786.84
2023-12-09T23:20:59.062Z,98792.84
2023-12-09T23:23:28.130Z,98764.50
2023-12-09T23:25:55.827Z,98814.19
2023-12-09T23:28:23.759Z,98791.00
2023-12-09T23:30:51.788Z,98806.44
2023-12-09T23:33:20.132Z,98799.50
2023-12-09T23:35:47.995Z,98803.88
2023-12-09T23:38:15.865Z,98813.22
2023-12-09T23:40:45.068Z,98821.75
2023-12-09T23:43:13.893Z,98860.28
2023-12-09T23:45:41.671Z,98826.84
2023-12-09T23:48:09.631Z,98817.38
2023-12-09T23:50:37.401Z,98822.56
2023-12-09T23:53:05.117Z,98825.16
2023-12-09T23:55:32.867Z,98825.19
2023-12-09T23:58:01.941Z,98826.84
